sensor_id;sensor_type;location;lat;lon;timestamp;pressure;altitude;pressure_sealevel;temperature;humidity
19286;BME280;9776;50.798;6.430;2023-06-04T00:02:19;100601.72;;;17.05;38.29
19286;BME280;9776;50.798;6.430;2023-06-04T00:04:46;100604.66;;;16.95;38.54
19286;BME280;9776;50.798;6.430;2023-06-04T00:07:13;100602.91;;;16.88;38.66
19286;BME280;9776;50.798;6.430;2023-06-04T00:09:39;100601.97;;;16.81;38.85
19286;BME280;9776;50.798;6.430;2023-06-04T00:12:07;100603.16;;;16.78;38.80
19286;BME280;9776;50.798;6.430;2023-06-04T00:14:35;100603.25;;;16.70;38.92
19286;BME280;9776;50.798;6.430;2023-06-04T00:17:01;100602.16;;;16.65;38.85
19286;BME280;9776;50.798;6.430;2023-06-04T00:19:28;100599.75;;;16.55;39.27
19286;BME280;9776;50.798;6.430;2023-06-04T00:21:55;100604.56;;;16.52;39.21
19286;BME280;9776;50.798;6.430;2023-06-04T00:24:22;100602.63;;;16.45;39.23
19286;BME280;9776;50.798;6.430;2023-06-04T00:26:48;100599.50;;;16.42;39.32
19286;BME280;9776;50.798;6.430;2023-06-04T00:29:15;100595.53;;;16.38;39.53
19286;BME280;9776;50.798;6.430;2023-06-04T00:31:43;100587.63;;;16.30;39.39
19286;BME280;9776;50.798;6.430;2023-06-04T00:34:10;100586.13;;;16.13;39.64
19286;BME280;9776;50.798;6.430;2023-06-04T00:36:36;100591.13;;;16.08;39.84
19286;BME280;9776;50.798;6.430;2023-06-04T00:39:03;100589.16;;;16.02;40.03
19286;BME280;9776;50.798;6.430;2023-06-04T00:41:30;100593.22;;;15.98;40.31
19286;BME280;9776;50.798;6.430;2023-06-04T00:43:56;100593.56;;;15.95;40.35
19286;BME280;9776;50.798;6.430;2023-06-04T00:46:24;100597.22;;;15.94;40.34
19286;BME280;9776;50.798;6.430;2023-06-04T00:48:54;100591.06;;;15.93;40.18
19286;BME280;9776;50.798;6.430;2023-06-04T00:51:21;100586.56;;;15.94;40.56
19286;BME280;9776;50.798;6.430;2023-06-04T00:53:48;100587.13;;;15.89;40.53
19286;BME280;9776;50.798;6.430;2023-06-04T00:56:16;100586.16;;;15.82;40.55
19286;BME280;9776;50.798;6.430;2023-06-04T00:58:43;100583.75;;;15.72;40.84
19286;BME280;9776;50.798;6.430;2023-06-04T01:01:15;100587.59;;;15.70;40.80
19286;BME280;9776;50.798;6.430;2023-06-04T01:03:49;100583.63;;;15.66;41.10
19286;BME280;9776;50.798;6.430;2023-06-04T01:06:24;100586.97;;;15.60;41.10
19286;BME280;9776;50.798;6.430;2023-06-04T01:08:56;100583.34;;;15.53;41.21
19286;BME280;9776;50.798;6.430;2023-06-04T01:11:31;100588.22;;;15.49;41.40
19286;BME280;9776;50.798;6.430;2023-06-04T01:14:00;100582.72;;;15.43;41.53
19286;BME280;9776;50.798;6.430;2023-06-04T01:16:30;100582.22;;;15.39;41.61
19286;BME280;9776;50.798;6.430;2023-06-04T01:19:01;100583.06;;;15.40;41.66
19286;BME280;9776;50.798;6.430;2023-06-04T01:21:34;100587.19;;;15.42;41.76
19286;BME280;9776;50.798;6.430;2023-06-04T01:24:05;100593.88;;;15.38;41.64
19286;BME280;9776;50.798;6.430;2023-06-04T01:26:32;100586.91;;;15.37;41.68
19286;BME280;9776;50.798;6.430;2023-06-04T01:28:59;100591.56;;;15.35;41.67
19286;BME280;9776;50.798;6.430;2023-06-04T01:31:27;100586.94;;;15.29;41.86
19286;BME280;9776;50.798;6.430;2023-06-04T01:33:58;100588.94;;;15.27;41.75
19286;BME280;9776;50.798;6.430;2023-06-04T01:36:25;100583.31;;;15.22;41.87
19286;BME280;9776;50.798;6.430;2023-06-04T01:38:53;100593.66;;;15.17;41.97
19286;BME280;9776;50.798;6.430;2023-06-04T01:41:20;100591.81;;;15.09;42.36
19286;BME280;9776;50.798;6.430;2023-06-04T01:43:46;100588.38;;;15.09;42.25
19286;BME280;9776;50.798;6.430;2023-06-04T01:46:13;100588.88;;;15.04;42.52
19286;BME280;9776;50.798;6.430;2023-06-04T01:48:39;100591.03;;;15.01;42.57
19286;BME280;9776;50.798;6.430;2023-06-04T01:51:06;100589.88;;;14.95;42.46
19286;BME280;9776;50.798;6.430;2023-06-04T01:53:33;100593.06;;;14.91;42.78
19286;BME280;9776;50.798;6.430;2023-06-04T01:56:01;100589.06;;;14.87;42.84
19286;BME280;9776;50.798;6.430;2023-06-04T01:58:28;100589.91;;;14.87;42.70
19286;BME280;9776;50.798;6.430;2023-06-04T02:00:57;100594.59;;;14.77;42.98
19286;BME280;9776;50.798;6.430;2023-06-04T02:03:25;100600.41;;;14.72;43.22
19286;BME280;9776;50.798;6.430;2023-06-04T02:05:52;100600.94;;;14.68;43.38
19286;BME280;9776;50.798;6.430;2023-06-04T02:08:18;100597.63;;;14.66;43.45
19286;BME280;9776;50.798;6.430;2023-06-04T02:10:45;100596.09;;;14.63;43.36
19286;BME280;9776;50.798;6.430;2023-06-04T02:13:14;100593.44;;;14.63;43.28
19286;BME280;9776;50.798;6.430;2023-06-04T02:15:41;100591.97;;;14.61;43.39
19286;BME280;9776;50.798;6.430;2023-06-04T02:18:13;100595.78;;;14.58;43.34
19286;BME280;9776;50.798;6.430;2023-06-04T02:20:42;100591.00;;;14.54;43.58
19286;BME280;9776;50.798;6.430;2023-06-04T02:23:08;100591.50;;;14.41;43.66
19286;BME280;9776;50.798;6.430;2023-06-04T02:25:35;100593.47;;;14.15;44.49
19286;BME280;9776;50.798;6.430;2023-06-04T02:28:02;100595.16;;;14.16;44.41
19286;BME280;9776;50.798;6.430;2023-06-04T02:30:30;100596.63;;;14.18;44.33
19286;BME280;9776;50.798;6.430;2023-06-04T02:32:56;100600.44;;;14.24;44.43
19286;BME280;9776;50.798;6.430;2023-06-04T02:35:26;100598.44;;;14.18;44.43
19286;BME280;9776;50.798;6.430;2023-06-04T02:37:53;100605.44;;;14.11;44.66
19286;BME280;9776;50.798;6.430;2023-06-04T02:40:21;100605.91;;;14.06;44.83
19286;BME280;9776;50.798;6.430;2023-06-04T02:42:48;100621.84;;;14.06;44.91
19286;BME280;9776;50.798;6.430;2023-06-04T02:45:15;100616.06;;;14.11;45.00
19286;BME280;9776;50.798;6.430;2023-06-04T02:47:43;100618.03;;;14.09;44.91
19286;BME280;9776;50.798;6.430;2023-06-04T02:50:10;100619.84;;;14.08;44.78
19286;BME280;9776;50.798;6.430;2023-06-04T02:52:37;100615.88;;;14.04;44.95
19286;BME280;9776;50.798;6.430;2023-06-04T02:55:06;100614.19;;;14.03;44.98
19286;BME280;9776;50.798;6.430;2023-06-04T02:57:33;100605.72;;;14.00;44.83
19286;BME280;9776;50.798;6.430;2023-06-04T03:00:00;100607.41;;;13.85;45.11
19286;BME280;9776;50.798;6.430;2023-06-04T03:02:27;100606.38;;;13.70;45.40
19286;BME280;9776;50.798;6.430;2023-06-04T03:04:55;100610.66;;;13.62;45.63
19286;BME280;9776;50.798;6.430;2023-06-04T03:07:22;100613.78;;;13.58;45.49
19286;BME280;9776;50.798;6.430;2023-06-04T03:09:48;100607.47;;;13.51;45.58
19286;BME280;9776;50.798;6.430;2023-06-04T03:12:15;100603.00;;;13.51;45.62
19286;BME280;9776;50.798;6.430;2023-06-04T03:14:42;100603.28;;;13.32;46.04
19286;BME280;9776;50.798;6.430;2023-06-04T03:17:09;100603.59;;;13.29;46.28
19286;BME280;9776;50.798;6.430;2023-06-04T03:19:36;100604.00;;;13.08;46.77
19286;BME280;9776;50.798;6.430;2023-06-04T03:22:06;100611.84;;;13.18;46.76
19286;BME280;9776;50.798;6.430;2023-06-04T03:24:34;100615.16;;;13.20;46.60
19286;BME280;9776;50.798;6.430;2023-06-04T03:27:02;100613.84;;;13.24;46.53
19286;BME280;9776;50.798;6.430;2023-06-04T03:29:29;100608.25;;;13.27;46.51
19286;BME280;9776;50.798;6.430;2023-06-04T03:31:55;100612.22;;;13.31;46.45
19286;BME280;9776;50.798;6.430;2023-06-04T03:34:22;100611.06;;;13.34;46.39
19286;BME280;9776;50.798;6.430;2023-06-04T03:36:50;100615.16;;;13.20;46.76
19286;BME280;9776;50.798;6.430;2023-06-04T03:39:18;100618.38;;;13.06;47.29
19286;BME280;9776;50.798;6.430;2023-06-04T03:41:45;100612.34;;;12.96;47.73
19286;BME280;9776;50.798;6.430;2023-06-04T03:44:12;100613.03;;;12.98;47.67
19286;BME280;9776;50.798;6.430;2023-06-04T03:46:40;100620.81;;;12.99;47.79
19286;BME280;9776;50.798;6.430;2023-06-04T03:49:06;100615.56;;;13.07;47.63
19286;BME280;9776;50.798;6.430;2023-06-04T03:51:33;100614.09;;;13.13;47.50
19286;BME280;9776;50.798;6.430;2023-06-04T03:54:00;100617.78;;;13.12;47.76
19286;BME280;9776;50.798;6.430;2023-06-04T03:56:28;100619.84;;;13.00;48.02
19286;BME280;9776;50.798;6.430;2023-06-04T03:58:55;100618.38;;;13.06;47.96
19286;BME280;9776;50.798;6.430;2023-06-04T04:01:23;100618.69;;;13.03;48.00
19286;BME280;9776;50.798;6.430;2023-06-04T04:03:49;100612.94;;;13.07;47.85
19286;BME280;9776;50.798;6.430;2023-06-04T04:06:16;100617.59;;;13.14;48.05
19286;BME280;9776;50.798;6.430;2023-06-04T04:08:43;100617.97;;;13.19;47.99
19286;BME280;9776;50.798;6.430;2023-06-04T04:11:10;100614.50;;;13.18;47.92
19286;BME280;9776;50.798;6.430;2023-06-04T04:13:38;100612.00;;;13.25;48.04
19286;BME280;9776;50.798;6.430;2023-06-04T04:16:05;100605.72;;;13.26;47.83
19286;BME280;9776;50.798;6.430;2023-06-04T04:18:32;100614.53;;;13.26;47.80
19286;BME280;9776;50.798;6.430;2023-06-04T04:21:00;100618.16;;;13.25;47.72
19286;BME280;9776;50.798;6.430;2023-06-04T04:23:26;100619.31;;;13.23;47.69
19286;BME280;9776;50.798;6.430;2023-06-04T04:25:53;100617.66;;;13.22;47.59
19286;BME280;9776;50.798;6.430;2023-06-04T04:28:21;100618.78;;;13.19;47.84
19286;BME280;9776;50.798;6.430;2023-06-04T04:30:49;100616.81;;;13.21;47.79
19286;BME280;9776;50.798;6.430;2023-06-04T04:33:16;100617.00;;;13.28;47.78
19286;BME280;9776;50.798;6.430;2023-06-04T04:35:42;100611.25;;;13.40;47.60
19286;BME280;9776;50.798;6.430;2023-06-04T04:38:09;100614.75;;;13.49;47.45
19286;BME280;9776;50.798;6.430;2023-06-04T04:40:36;100621.56;;;13.59;47.16
19286;BME280;9776;50.798;6.430;2023-06-04T04:43:03;100619.44;;;13.71;47.16
19286;BME280;9776;50.798;6.430;2023-06-04T04:45:30;100623.94;;;13.71;47.13
19286;BME280;9776;50.798;6.430;2023-06-04T04:47:58;100617.00;;;13.86;47.00
19286;BME280;9776;50.798;6.430;2023-06-04T04:50:24;100626.31;;;13.90;47.05
19286;BME280;9776;50.798;6.430;2023-06-04T04:52:51;100631.28;;;14.01;46.99
19286;BME280;9776;50.798;6.430;2023-06-04T04:55:18;100634.97;;;14.16;46.65
19286;BME280;9776;50.798;6.430;2023-06-04T04:57:44;100636.59;;;14.17;46.95
19286;BME280;9776;50.798;6.430;2023-06-04T05:00:12;100637.66;;;14.32;46.80
19286;BME280;9776;50.798;6.430;2023-06-04T05:02:39;100640.97;;;14.42;46.61
19286;BME280;9776;50.798;6.430;2023-06-04T05:05:08;100635.66;;;14.50;46.57
19286;BME280;9776;50.798;6.430;2023-06-04T05:07:36;100635.63;;;14.66;46.32
19286;BME280;9776;50.798;6.430;2023-06-04T05:10:02;100641.91;;;14.82;46.09
19286;BME280;9776;50.798;6.430;2023-06-04T05:12:30;100631.09;;;14.99;45.97
19286;BME280;9776;50.798;6.430;2023-06-04T05:14:57;100642.34;;;15.17;45.70
19286;BME280;9776;50.798;6.430;2023-06-04T05:17:23;100639.25;;;15.37;45.61
19286;BME280;9776;50.798;6.430;2023-06-04T05:19:55;100635.41;;;15.55;45.36
19286;BME280;9776;50.798;6.430;2023-06-04T05:22:28;100635.16;;;15.65;45.47
19286;BME280;9776;50.798;6.430;2023-06-04T05:24:55;100631.66;;;15.72;45.67
19286;BME280;9776;50.798;6.430;2023-06-04T05:27:24;100627.53;;;15.93;45.54
19286;BME280;9776;50.798;6.430;2023-06-04T05:29:51;100635.31;;;15.94;45.71
19286;BME280;9776;50.798;6.430;2023-06-04T05:32:17;100648.81;;;15.93;45.89
19286;BME280;9776;50.798;6.430;2023-06-04T05:34:44;100647.38;;;16.13;45.95
19286;BME280;9776;50.798;6.430;2023-06-04T05:37:12;100648.47;;;16.41;45.65
19286;BME280;9776;50.798;6.430;2023-06-04T05:39:43;100649.56;;;16.69;45.01
19286;BME280;9776;50.798;6.430;2023-06-04T05:42:09;100644.38;;;16.90;44.69
19286;BME280;9776;50.798;6.430;2023-06-04T05:44:36;100650.09;;;17.17;43.90
19286;BME280;9776;50.798;6.430;2023-06-04T05:47:03;100639.31;;;17.39;43.50
19286;BME280;9776;50.798;6.430;2023-06-04T05:49:30;100646.28;;;17.55;42.81
19286;BME280;9776;50.798;6.430;2023-06-04T05:51:57;100637.44;;;17.69;42.27
19286;BME280;9776;50.798;6.430;2023-06-04T05:54:23;100648.03;;;17.77;41.79
19286;BME280;9776;50.798;6.430;2023-06-04T05:56:51;100646.91;;;17.86;41.09
19286;BME280;9776;50.798;6.430;2023-06-04T05:59:18;100654.44;;;18.04;40.41
19286;BME280;9776;50.798;6.430;2023-06-04T06:01:44;100648.25;;;18.18;39.80
19286;BME280;9776;50.798;6.430;2023-06-04T06:04:11;100649.97;;;18.26;39.35
19286;BME280;9776;50.798;6.430;2023-06-04T06:06:38;100651.81;;;18.46;38.71
19286;BME280;9776;50.798;6.430;2023-06-04T06:09:05;100653.94;;;18.79;38.16
19286;BME280;9776;50.798;6.430;2023-06-04T06:11:32;100662.78;;;19.13;37.30
19286;BME280;9776;50.798;6.430;2023-06-04T06:14:00;100665.50;;;19.48;36.80
19286;BME280;9776;50.798;6.430;2023-06-04T06:16:26;100668.53;;;19.79;35.98
19286;BME280;9776;50.798;6.430;2023-06-04T06:18:53;100666.09;;;20.04;35.39
19286;BME280;9776;50.798;6.430;2023-06-04T06:21:20;100672.81;;;20.34;35.17
19286;BME280;9776;50.798;6.430;2023-06-04T06:23:46;100676.97;;;20.63;34.55
19286;BME280;9776;50.798;6.430;2023-06-04T06:26:13;100679.63;;;20.89;34.21
19286;BME280;9776;50.798;6.430;2023-06-04T06:28:41;100680.22;;;20.84;34.22
19286;BME280;9776;50.798;6.430;2023-06-04T06:31:09;100674.47;;;20.94;34.21
19286;BME280;9776;50.798;6.430;2023-06-04T06:33:36;100676.75;;;20.77;34.50
19286;BME280;9776;50.798;6.430;2023-06-04T06:36:06;100677.75;;;20.89;34.08
19286;BME280;9776;50.798;6.430;2023-06-04T06:38:33;100679.16;;;21.31;33.51
19286;BME280;9776;50.798;6.430;2023-06-04T06:41:00;100676.16;;;21.66;33.08
19286;BME280;9776;50.798;6.430;2023-06-04T06:43:26;100679.59;;;21.79;32.53
19286;BME280;9776;50.798;6.430;2023-06-04T06:45:53;100670.00;;;22.03;32.37
19286;BME280;9776;50.798;6.430;2023-06-04T06:48:21;100680.50;;;22.42;31.84
19286;BME280;9776;50.798;6.430;2023-06-04T06:50:48;100685.47;;;22.77;31.39
19286;BME280;9776;50.798;6.430;2023-06-04T06:53:14;100689.09;;;23.07;31.11
19286;BME280;9776;50.798;6.430;2023-06-04T06:55:41;100687.13;;;23.39;30.59
19286;BME280;9776;50.798;6.430;2023-06-04T06:58:07;100683.44;;;23.69;30.06
19286;BME280;9776;50.798;6.430;2023-06-04T07:00:34;100689.47;;;24.01;29.73
19286;BME280;9776;50.798;6.430;2023-06-04T07:03:01;100693.16;;;24.07;29.67
19286;BME280;9776;50.798;6.430;2023-06-04T07:05:29;100688.06;;;24.28;29.35
19286;BME280;9776;50.798;6.430;2023-06-04T07:07:56;100688.50;;;24.55;29.10
19286;BME280;9776;50.798;6.430;2023-06-04T07:10:24;100695.38;;;24.81;28.92
19286;BME280;9776;50.798;6.430;2023-06-04T07:12:51;100694.19;;;25.12;28.69
19286;BME280;9776;50.798;6.430;2023-06-04T07:15:17;100695.00;;;25.47;28.22
19286;BME280;9776;50.798;6.430;2023-06-04T07:17:44;100703.75;;;25.77;27.82
19286;BME280;9776;50.798;6.430;2023-06-04T07:20:11;100693.88;;;25.83;28.05
19286;BME280;9776;50.798;6.430;2023-06-04T07:22:39;100689.13;;;25.50;28.28
19286;BME280;9776;50.798;6.430;2023-06-04T07:25:06;100702.16;;;25.42;28.41
19286;BME280;9776;50.798;6.430;2023-06-04T07:27:33;100692.63;;;25.74;27.90
19286;BME280;9776;50.798;6.430;2023-06-04T07:30:00;100684.56;;;26.19;27.23
19286;BME280;9776;50.798;6.430;2023-06-04T07:32:27;100697.41;;;26.40;26.91
19286;BME280;9776;50.798;6.430;2023-06-04T07:34:54;100692.50;;;26.87;26.43
19286;BME280;9776;50.798;6.430;2023-06-04T07:37:20;100705.47;;;27.18;25.98
19286;BME280;9776;50.798;6.430;2023-06-04T07:39:48;100693.66;;;27.08;25.71
19286;BME280;9776;50.798;6.430;2023-06-04T07:42:15;100696.09;;;27.26;25.59
19286;BME280;9776;50.798;6.430;2023-06-04T07:44:42;100699.47;;;27.54;25.21
19286;BME280;9776;50.798;6.430;2023-06-04T07:47:08;100683.97;;;27.93;24.42
19286;BME280;9776;50.798;6.430;2023-06-04T07:49:35;100688.50;;;28.36;24.16
19286;BME280;9776;50.798;6.430;2023-06-04T07:52:03;100686.56;;;28.63;23.81
19286;BME280;9776;50.798;6.430;2023-06-04T07:54:30;100685.50;;;29.01;23.03
19286;BME280;9776;50.798;6.430;2023-06-04T07:56:58;100689.06;;;29.49;22.67
19286;BME280;9776;50.798;6.430;2023-06-04T07:59:24;100688.25;;;29.48;22.85
19286;BME280;9776;50.798;6.430;2023-06-04T08:01:51;100684.66;;;30.00;22.12
19286;BME280;9776;50.798;6.430;2023-06-04T08:04:18;100686.91;;;30.43;22.16
19286;BME280;9776;50.798;6.430;2023-06-04T08:06:44;100686.13;;;30.68;21.54
19286;BME280;9776;50.798;6.430;2023-06-04T08:09:11;100681.19;;;31.10;21.07
19286;BME280;9776;50.798;6.430;2023-06-04T08:11:40;100683.22;;;31.59;20.22
19286;BME280;9776;50.798;6.430;2023-06-04T08:14:09;100680.00;;;32.06;20.03
19286;BME280;9776;50.798;6.430;2023-06-04T08:16:36;100688.75;;;32.46;19.66
19286;BME280;9776;50.798;6.430;2023-06-04T08:19:04;100684.13;;;32.76;18.96
19286;BME280;9776;50.798;6.430;2023-06-04T08:21:32;100681.66;;;33.08;18.82
19286;BME280;9776;50.798;6.430;2023-06-04T08:23:59;100681.31;;;33.38;18.66
19286;BME280;9776;50.798;6.430;2023-06-04T08:26:26;100687.31;;;33.64;18.36
19286;BME280;9776;50.798;6.430;2023-06-04T08:28:55;100687.09;;;33.60;18.23
19286;BME280;9776;50.798;6.430;2023-06-04T08:31:23;100682.97;;;33.82;18.06
19286;BME280;9776;50.798;6.430;2023-06-04T08:33:49;100686.53;;;34.01;17.78
19286;BME280;9776;50.798;6.430;2023-06-04T08:36:16;100690.09;;;34.57;17.44
19286;BME280;9776;50.798;6.430;2023-06-04T08:38:43;100681.78;;;34.95;17.33
19286;BME280;9776;50.798;6.430;2023-06-04T08:41:13;100687.31;;;35.22;16.90
19286;BME280;9776;50.798;6.430;2023-06-04T08:43:42;100685.06;;;35.65;16.62
19286;BME280;9776;50.798;6.430;2023-06-04T08:46:09;100674.84;;;36.06;16.15
19286;BME280;9776;50.798;6.430;2023-06-04T08:48:39;100683.06;;;36.42;15.72
19286;BME280;9776;50.798;6.430;2023-06-04T08:51:06;100675.03;;;36.32;15.73
19286;BME280;9776;50.798;6.430;2023-06-04T08:53:34;100678.91;;;36.75;15.25
19286;BME280;9776;50.798;6.430;2023-06-04T08:56:01;100686.06;;;36.76;15.15
19286;BME280;9776;50.798;6.430;2023-06-04T08:58:30;100677.91;;;36.49;15.25
19286;BME280;9776;50.798;6.430;2023-06-04T09:00:57;100679.34;;;36.69;15.27
19286;BME280;9776;50.798;6.430;2023-06-04T09:03:25;100683.78;;;37.40;14.78
19286;BME280;9776;50.798;6.430;2023-06-04T09:05:54;100679.84;;;37.80;14.34
19286;BME280;9776;50.798;6.430;2023-06-04T09:08:21;100677.31;;;38.10;13.96
19286;BME280;9776;50.798;6.430;2023-06-04T09:10:50;100679.88;;;38.49;13.67
19286;BME280;9776;50.798;6.430;2023-06-04T09:13:19;100679.22;;;38.52;13.45
19286;BME280;9776;50.798;6.430;2023-06-04T09:15:58;100687.00;;;37.98;14.02
19286;BME280;9776;50.798;6.430;2023-06-04T09:18:25;100678.09;;;38.19;13.62
19286;BME280;9776;50.798;6.430;2023-06-04T09:21:01;100678.09;;;38.53;13.29
19286;BME280;9776;50.798;6.430;2023-06-04T09:23:28;100670.69;;;39.38;13.16
19286;BME280;9776;50.798;6.430;2023-06-04T09:25:55;100678.41;;;40.23;12.44
19286;BME280;9776;50.798;6.430;2023-06-04T09:28:22;100677.75;;;41.16;12.18
19286;BME280;9776;50.798;6.430;2023-06-04T09:30:52;100677.72;;;42.01;11.73
19286;BME280;9776;50.798;6.430;2023-06-04T09:33:18;100678.19;;;42.59;11.19
19286;BME280;9776;50.798;6.430;2023-06-04T09:35:53;100668.28;;;42.73;10.95
19286;BME280;9776;50.798;6.430;2023-06-04T09:38:21;100667.94;;;43.22;10.50
19286;BME280;9776;50.798;6.430;2023-06-04T09:40:48;100672.50;;;43.45;10.47
19286;BME280;9776;50.798;6.430;2023-06-04T09:43:21;100676.06;;;43.30;10.13
19286;BME280;9776;50.798;6.430;2023-06-04T09:45:48;100666.44;;;43.59;10.35
19286;BME280;9776;50.798;6.430;2023-06-04T09:48:19;100668.63;;;43.85;10.28
19286;BME280;9776;50.798;6.430;2023-06-04T09:50:46;100665.16;;;44.26;10.23
19286;BME280;9776;50.798;6.430;2023-06-04T09:53:14;100665.69;;;44.74;9.71
19286;BME280;9776;50.798;6.430;2023-06-04T09:55:42;100662.97;;;45.26;9.30
19286;BME280;9776;50.798;6.430;2023-06-04T09:58:10;100669.84;;;45.58;9.27
19286;BME280;9776;50.798;6.430;2023-06-04T10:00:37;100658.03;;;45.95;9.24
19286;BME280;9776;50.798;6.430;2023-06-04T10:03:05;100661.00;;;46.42;8.54
19286;BME280;9776;50.798;6.430;2023-06-04T10:05:35;100661.72;;;46.39;8.55
19286;BME280;9776;50.798;6.430;2023-06-04T10:08:03;100664.25;;;46.48;8.42
19286;BME280;9776;50.798;6.430;2023-06-04T10:10:34;100660.72;;;46.17;8.60
19286;BME280;9776;50.798;6.430;2023-06-04T10:13:11;100658.69;;;45.85;8.47
19286;BME280;9776;50.798;6.430;2023-06-04T10:15:38;100652.63;;;45.27;8.62
19286;BME280;9776;50.798;6.430;2023-06-04T10:18:05;100643.63;;;45.63;8.56
19286;BME280;9776;50.798;6.430;2023-06-04T10:20:32;100649.16;;;45.89;8.48
19286;BME280;9776;50.798;6.430;2023-06-04T10:23:00;100655.84;;;46.11;8.28
19286;BME280;9776;50.798;6.430;2023-06-04T10:25:27;100653.31;;;46.72;8.28
19286;BME280;9776;50.798;6.430;2023-06-04T10:27:54;100652.53;;;47.19;7.77
19286;BME280;9776;50.798;6.430;2023-06-04T10:30:23;100641.63;;;47.65;7.85
19286;BME280;9776;50.798;6.430;2023-06-04T10:32:50;100627.97;;;48.43;7.13
19286;BME280;9776;50.798;6.430;2023-06-04T10:35:17;100628.41;;;48.98;7.40
19286;BME280;9776;50.798;6.430;2023-06-04T10:37:43;100627.97;;;49.21;7.18
19286;BME280;9776;50.798;6.430;2023-06-04T10:40:11;100629.19;;;49.13;6.91
19286;BME280;9776;50.798;6.430;2023-06-04T10:42:38;100618.31;;;49.43;7.07
19286;BME280;9776;50.798;6.430;2023-06-04T10:45:07;100625.06;;;49.60;6.82
19286;BME280;9776;50.798;6.430;2023-06-04T10:47:36;100620.66;;;49.73;6.80
19286;BME280;9776;50.798;6.430;2023-06-04T10:50:08;100617.03;;;49.72;6.44
19286;BME280;9776;50.798;6.430;2023-06-04T10:52:36;100630.31;;;49.58;6.87
19286;BME280;9776;50.798;6.430;2023-06-04T10:55:04;100622.38;;;48.85;7.02
19286;BME280;9776;50.798;6.430;2023-06-04T10:57:32;100617.97;;;48.67;7.00
19286;BME280;9776;50.798;6.430;2023-06-04T11:00:00;100626.81;;;48.94;6.77
19286;BME280;9776;50.798;6.430;2023-06-04T11:02:31;100622.31;;;48.29;7.18
19286;BME280;9776;50.798;6.430;2023-06-04T11:05:03;100625.88;;;48.19;6.91
19286;BME280;9776;50.798;6.430;2023-06-04T11:07:41;100621.94;;;48.41;7.15
19286;BME280;9776;50.798;6.430;2023-06-04T11:10:09;100619.97;;;48.87;6.85
19286;BME280;9776;50.798;6.430;2023-06-04T11:12:41;100615.91;;;49.52;6.53
19286;BME280;9776;50.798;6.430;2023-06-04T11:15:09;100612.53;;;49.89;6.46
19286;BME280;9776;50.798;6.430;2023-06-04T11:17:36;100603.50;;;50.33;6.33
19286;BME280;9776;50.798;6.430;2023-06-04T11:20:15;100609.84;;;50.40;6.26
19286;BME280;9776;50.798;6.430;2023-06-04T11:22:42;100608.03;;;50.71;6.42
19286;BME280;9776;50.798;6.430;2023-06-04T11:25:09;100595.16;;;50.74;6.24
19286;BME280;9776;50.798;6.430;2023-06-04T11:27:36;100602.34;;;50.78;6.16
19286;BME280;9776;50.798;6.430;2023-06-04T11:30:03;100593.28;;;51.01;6.40
19286;BME280;9776;50.798;6.430;2023-06-04T11:32:30;100585.63;;;50.57;6.33
19286;BME280;9776;50.798;6.430;2023-06-04T11:35:05;100577.00;;;49.54;6.43
19286;BME280;9776;50.798;6.430;2023-06-04T11:37:31;100578.19;;;49.64;6.59
19286;BME280;9776;50.798;6.430;2023-06-04T11:39:58;100583.88;;;50.22;6.49
19286;BME280;9776;50.798;6.430;2023-06-04T11:42:27;100587.41;;;50.37;6.39
19286;BME280;9776;50.798;6.430;2023-06-04T11:44:55;100585.28;;;49.89;6.46
19286;BME280;9776;50.798;6.430;2023-06-04T11:47:23;100576.69;;;49.31;6.68
19286;BME280;9776;50.798;6.430;2023-06-04T11:49:54;100575.69;;;49.76;6.53
19286;BME280;9776;50.798;6.430;2023-06-04T11:52:22;100581.28;;;49.87;6.66
19286;BME280;9776;50.798;6.430;2023-06-04T11:54:49;100583.25;;;49.90;6.25
19286;BME280;9776;50.798;6.430;2023-06-04T11:57:17;100581.31;;;49.80;6.51
19286;BME280;9776;50.798;6.430;2023-06-04T11:59:44;100582.53;;;49.79;5.94
19286;BME280;9776;50.798;6.430;2023-06-04T12:02:11;100586.84;;;49.97;6.41
19286;BME280;9776;50.798;6.430;2023-06-04T12:04:38;100581.91;;;50.19;6.01
19286;BME280;9776;50.798;6.430;2023-06-04T12:07:05;100581.69;;;50.51;5.95
19286;BME280;9776;50.798;6.430;2023-06-04T12:09:35;100573.91;;;50.69;5.70
19286;BME280;9776;50.798;6.430;2023-06-04T12:12:04;100578.78;;;50.62;5.77
19286;BME280;9776;50.798;6.430;2023-06-04T12:14:31;100573.63;;;50.53;5.88
19286;BME280;9776;50.798;6.430;2023-06-04T12:17:00;100566.09;;;49.74;6.14
19286;BME280;9776;50.798;6.430;2023-06-04T12:19:27;100569.53;;;48.42;6.54
19286;BME280;9776;50.798;6.430;2023-06-04T12:22:01;100557.72;;;46.97;7.19
19286;BME280;9776;50.798;6.430;2023-06-04T12:24:28;100560.84;;;45.41;7.82
19286;BME280;9776;50.798;6.430;2023-06-04T12:27:04;100556.19;;;43.67;8.41
19286;BME280;9776;50.798;6.430;2023-06-04T12:29:32;100554.03;;;42.00;9.06
19286;BME280;9776;50.798;6.430;2023-06-04T12:32:03;100541.28;;;40.47;9.94
19286;BME280;9776;50.798;6.430;2023-06-04T12:34:30;100546.00;;;39.19;10.09
19286;BME280;9776;50.798;6.430;2023-06-04T12:36:57;100554.22;;;37.71;10.99
19286;BME280;9776;50.798;6.430;2023-06-04T12:39:23;100538.84;;;36.26;11.85
19286;BME280;9776;50.798;6.430;2023-06-04T12:41:50;100545.06;;;35.73;12.33
19286;BME280;9776;50.798;6.430;2023-06-04T12:44:18;100549.13;;;35.40;12.60
19286;BME280;9776;50.798;6.430;2023-06-04T12:46:46;100557.59;;;35.03;12.81
19286;BME280;9776;50.798;6.430;2023-06-04T12:49:12;100558.41;;;34.76;12.87
19286;BME280;9776;50.798;6.430;2023-06-04T12:51:39;100555.69;;;34.44;12.99
19286;BME280;9776;50.798;6.430;2023-06-04T12:54:06;100552.03;;;34.35;13.13
19286;BME280;9776;50.798;6.430;2023-06-04T12:56:33;100545.97;;;33.87;13.43
19286;BME280;9776;50.798;6.430;2023-06-04T12:59:00;100551.13;;;33.32;13.86
19286;BME280;9776;50.798;6.430;2023-06-04T13:01:28;100563.25;;;33.26;13.96
19286;BME280;9776;50.798;6.430;2023-06-04T13:03:55;100555.63;;;33.23;14.25
19286;BME280;9776;50.798;6.430;2023-06-04T13:06:21;100552.63;;;33.25;14.58